METAR Data

Data at: 2333 UTC 26 Feb 2020

METAR for:KIWI (Wiscasset Arpt, ME, US)
Text:KIWI 262253Z AUTO 00000KT 10SM FEW060 OVC080 05/M01 A3003 RMK AO2 SLP169 T00501011
Temperature: 5.0°C ( 41°F)
Dewpoint: -1.1°C ( 30°F) [RH = 65%]
Pressure (altimeter):30.03 inches Hg (1017.0 mb) [Sea level pressure: 1016.9 mb]
Winds:calm
Visibility:10 or more sm (16+ km)
Ceiling:8000 feet AGL
Clouds: few clouds at 6000 feet AGL, overcast cloud deck at 8000 feet AGL
QC Flag:automated observation with no human augmentation